Time;durP1;ratioP1;P1;durP2;ratioP2;P2;SDS_P1;SDS_P2;PMS_P1;PMS_P2;Temp;Humidity;BMP_temperature;BMP_pressure;BME280_temperature;BME280_humidity;BME280_pressure;Samples;Min_cycle;Max_cycle;Signal;HPM_P1;HPM_P2
2022/01/31 05:33:47;;;;;;;;;2.00;0.00;;;;;9.47;66.59;101641.47;5018499;28;45424;-48
2022/01/31 05:36:12;;;;;;;;;0.00;0.00;;;;;9.45;65.18;101637.94;5020257;28;45573;-50
2022/01/31 05:38:39;;;;;;;;;0.75;0.75;;;;;9.43;64.58;101639.81;5019949;28;46061;-49
2022/01/31 05:41:08;;;;;;;;;0.25;0.25;;;;;9.41;63.97;101638.97;5020432;28;45479;-49
2022/01/31 05:43:34;;;;;;;;;2.50;0.00;;;;;9.42;63.32;101656.78;5019930;28;45306;-49
2022/01/31 05:45:59;;;;;;;;;4.50;2.00;;;;;9.42;63.31;101652.31;5020347;28;45662;-49
2022/01/31 05:48:25;;;;;;;;;1.75;0.00;;;;;9.45;63.23;101629.91;5018751;28;45472;-49
2022/01/31 05:50:51;;;;;;;;;4.50;2.00;;;;;9.44;62.83;101629.03;5018922;28;45588;-50
2022/01/31 05:53:16;;;;;;;;;0.00;0.00;;;;;9.46;62.47;101651.28;5019297;28;45488;-51
2022/01/31 05:55:44;;;;;;;;;1.00;1.00;;;;;9.33;62.42;101633.81;5019542;28;45478;-51
2022/01/31 05:58:10;;;;;;;;;2.00;0.00;;;;;9.47;61.90;101661.09;5019050;28;46180;-51
2022/01/31 06:00:37;;;;;;;;;2.00;0.50;;;;;9.40;61.25;101645.22;5019597;28;45337;-52
2022/01/31 06:03:03;;;;;;;;;1.00;1.00;;;;;9.35;61.42;101620.41;5019548;28;45352;-51
2022/01/31 06:05:29;;;;;;;;;1.00;0.00;;;;;9.32;61.12;101637.41;5019654;28;45321;-49
2022/01/31 06:07:55;;;;;;;;;1.25;1.25;;;;;9.30;61.50;101627.66;5019640;28;45258;-53
2022/01/31 06:10:23;;;;;;;;;2.00;0.00;;;;;9.29;61.86;101640.16;5001778;28;45405;-53
2022/01/31 06:12:48;;;;;;;;;1.50;1.00;;;;;9.27;61.41;101641.13;5019136;28;45388;-49
2022/01/31 06:15:14;;;;;;;;;1.00;0.00;;;;;9.28;61.28;101643.75;5019564;28;45413;-51
2022/01/31 06:17:40;;;;;;;;;1.75;0.00;;;;;9.28;61.09;101637.50;5019406;28;45356;-52
2022/01/31 06:20:06;;;;;;;;;2.00;0.00;;;;;9.30;61.24;101649.06;5002008;28;45394;-50
2022/01/31 06:22:31;;;;;;;;;3.00;0.75;;;;;9.29;61.37;101666.91;5019401;28;45372;-52
2022/01/31 06:24:56;;;;;;;;;2.00;0.00;;;;;9.27;61.33;101660.72;5019677;28;45353;-48
2022/01/31 06:27:22;;;;;;;;;1.00;0.00;;;;;9.29;60.81;101641.94;5019252;28;46517;-50
2022/01/31 06:29:47;;;;;;;;;2.25;1.00;;;;;9.29;60.81;101637.47;5019445;28;45326;-52
2022/01/31 06:32:12;;;;;;;;;0.00;0.00;;;;;9.30;60.96;101649.94;5019365;28;45310;-50
2022/01/31 06:34:38;;;;;;;;;2.00;1.00;;;;;9.30;60.98;101641.91;5019365;28;45535;-61
2022/01/31 06:37:04;;;;;;;;;0.00;0.00;;;;;9.30;60.86;101649.94;5019141;28;46308;-51
2022/01/31 06:39:30;;;;;;;;;1.00;0.00;;;;;9.28;60.48;101665.16;5019193;28;45454;-50
2022/01/31 06:41:57;;;;;;;;;1.50;0.00;;;;;9.05;60.25;101627.41;5018534;28;45350;-50
2022/01/31 06:44:22;;;;;;;;;0.75;0.00;;;;;9.20;60.40;101637.72;5019284;28;45331;-51
2022/01/31 06:46:48;;;;;;;;;0.00;0.00;;;;;9.24;60.59;101647.44;5018845;28;45408;-51
2022/01/31 06:49:13;;;;;;;;;1.50;0.25;;;;;9.26;60.00;101644.72;5018969;28;45318;-50
2022/01/31 06:51:39;;;;;;;;;4.75;1.75;;;;;9.24;60.32;101674.19;5019018;28;45477;-50
2022/01/31 06:54:05;;;;;;;;;0.00;0.00;;;;;9.23;60.18;101666.19;5019113;28;45326;-51
2022/01/31 06:56:34;;;;;;;;;2.00;0.00;;;;;9.22;60.39;101653.72;5018732;28;46335;-54
2022/01/31 06:59:01;;;;;;;;;2.75;0.25;;;;;9.20;59.81;101652.88;5019185;28;45307;-51
2022/01/31 07:01:27;;;;;;;;;7.00;1.00;;;;;9.19;59.92;101654.69;5018897;28;45357;-52
2022/01/31 07:03:53;;;;;;;;;1.00;0.00;;;;;9.18;59.99;101660.09;5018895;28;45298;-51
2022/01/31 07:06:20;;;;;;;;;2.00;1.00;;;;;9.17;59.72;101661.00;5018301;28;47189;-50
2022/01/31 07:08:46;;;;;;;;;2.50;1.00;;;;;9.14;60.03;101672.66;5011526;28;45359;-52
2022/01/31 07:11:16;;;;;;;;;2.00;1.00;;;;;9.15;59.80;101677.09;5017446;28;45479;-53
2022/01/31 07:13:43;;;;;;;;;3.00;1.00;;;;;9.14;60.03;101675.34;5017835;28;45467;-50
2022/01/31 07:16:09;;;;;;;;;3.25;1.00;;;;;9.13;59.81;101670.91;5018610;28;46258;-50
2022/01/31 07:18:36;;;;;;;;;1.25;1.00;;;;;9.14;59.30;101683.38;5016373;28;45447;-49
2022/01/31 07:21:02;;;;;;;;;3.00;0.00;;;;;9.10;59.45;101681.69;5017578;28;45461;-49
2022/01/31 07:23:38;;;;;;;;;4.00;1.00;;;;;9.04;59.26;101684.50;5017925;28;45369;-51
2022/01/31 07:26:04;;;;;;;;;2.50;0.75;;;;;9.01;59.38;101682.81;5018178;28;46412;-51
2022/01/31 07:28:29;;;;;;;;;0.50;0.50;;;;;9.03;58.95;101705.03;5017947;28;45282;-50
2022/01/31 07:30:56;;;;;;;;;0.25;0.25;;;;;9.01;59.02;101693.50;5018294;28;45365;-54
2022/01/31 07:33:22;;;;;;;;;2.25;0.75;;;;;9.01;59.00;101693.50;5017708;28;45361;-53
2022/01/31 07:35:49;;;;;;;;;2.00;1.00;;;;;9.03;59.20;101704.13;5017979;28;47079;-51
2022/01/31 07:38:15;;;;;;;;;0.75;0.75;;;;;8.99;59.06;101702.47;5018011;28;45317;-51
2022/01/31 07:40:41;;;;;;;;;3.25;2.00;;;;;8.95;58.75;101698.97;5018089;28;45242;-51
2022/01/31 07:43:07;;;;;;;;;2.25;1.00;;;;;8.94;58.73;101707.03;5017849;28;45574;-51
2022/01/31 07:45:32;;;;;;;;;0.00;0.00;;;;;8.98;58.71;101714.97;5017829;28;45413;-53
2022/01/31 07:47:58;;;;;;;;;2.75;1.25;;;;;8.97;59.13;101715.88;5018030;28;45315;-52
2022/01/31 07:50:23;;;;;;;;;0.50;0.50;;;;;9.01;58.86;101719.38;5018001;28;45326;-53
2022/01/31 07:52:49;;;;;;;;;1.00;1.00;;;;;9.03;58.60;101734.44;5017672;28;45704;-54
2022/01/31 07:55:14;;;;;;;;;1.75;1.00;;;;;9.03;58.40;101718.41;5021320;28;45243;-53
2022/01/31 07:57:45;;;;;;;;;0.25;0.25;;;;;9.02;58.48;101730.00;5020988;28;45508;-50
2022/01/31 08:00:11;;;;;;;;;1.00;0.00;;;;;9.03;58.56;101731.75;5021574;28;45357;-50
2022/01/31 08:02:36;;;;;;;;;0.00;0.00;;;;;9.05;58.72;101726.38;5021337;28;45279;-51
2022/01/31 08:05:02;;;;;;;;;1.25;1.00;;;;;9.11;58.77;101744.94;5021367;28;45258;-50
2022/01/31 08:07:27;;;;;;;;;2.00;1.00;;;;;9.13;58.17;101747.59;5021121;28;45318;-53
2022/01/31 08:09:53;;;;;;;;;2.00;1.00;;;;;9.18;58.60;101743.03;5021391;28;45490;-51
2022/01/31 08:12:18;;;;;;;;;1.75;0.75;;;;;9.13;58.26;101740.44;5021210;28;45286;-53
2022/01/31 08:14:44;;;;;;;;;2.50;0.25;;;;;9.17;58.19;101752.84;5020972;28;46601;-53
2022/01/31 08:17:10;;;;;;;;;1.50;1.50;;;;;9.20;58.18;101757.22;5021326;28;45332;-54
2022/01/31 08:19:35;;;;;;;;;0.00;0.00;;;;;9.24;58.30;101759.81;5020999;28;45386;-52
2022/01/31 08:22:01;;;;;;;;;0.50;0.50;;;;;9.30;58.59;101756.97;5021034;28;45343;-53
2022/01/31 08:24:26;;;;;;;;;2.50;1.00;;;;;9.31;58.35;101765.88;5020946;28;45327;-52
2022/01/31 08:26:52;;;;;;;;;1.75;1.75;;;;;9.28;58.49;101758.81;5020951;28;45446;-53
2022/01/31 08:29:25;;;;;;;;;4.50;0.00;;;;;9.28;58.82;101761.47;5020825;28;45374;-52
2022/01/31 08:31:53;;;;;;;;;4.25;1.00;;;;;9.23;58.98;101739.31;5020764;28;45655;-53
2022/01/31 08:34:24;;;;;;;;;2.25;1.00;;;;;9.26;59.08;101749.97;5020494;28;46126;-55
2022/01/31 08:36:51;;;;;;;;;3.75;2.00;;;;;9.28;58.86;101741.88;5021037;28;45484;-52
2022/01/31 08:39:19;;;;;;;;;2.25;0.00;;;;;9.29;59.11;101752.53;5021141;28;45269;-52
2022/01/31 08:41:48;;;;;;;;;2.00;1.00;;;;;9.34;59.39;101760.47;5020391;28;46127;-55
2022/01/31 08:44:17;;;;;;;;;3.75;1.00;;;;;9.30;59.33;101748.94;5020764;28;45275;-54
2022/01/31 08:46:44;;;;;;;;;4.25;2.00;;;;;9.32;59.19;101733.75;5020573;28;46143;-54
2022/01/31 08:49:13;;;;;;;;;3.00;0.00;;;;;9.32;59.68;101747.13;5020729;28;45417;-54
2022/01/31 08:51:38;;;;;;;;;0.00;0.00;;;;;9.32;59.40;101764.97;5020500;28;45941;-54
2022/01/31 08:54:06;;;;;;;;;3.00;1.00;;;;;9.32;59.27;101791.72;5020436;28;45354;-54
2022/01/31 08:56:35;;;;;;;;;1.00;1.00;;;;;9.30;59.72;101786.41;5020433;28;45373;-52
2022/01/31 08:59:02;;;;;;;;;2.00;2.00;;;;;9.31;59.21;101787.28;5020668;28;45159;-53
2022/01/31 09:01:28;;;;;;;;;3.50;2.00;;;;;9.36;59.44;101791.59;5002625;28;46231;-53
2022/01/31 09:06:22;;;;;;;;;0.50;0.25;;;;;9.43;58.80;101766.47;5020260;28;45271;-53
2022/01/31 09:08:47;;;;;;;;;4.00;1.00;;;;;9.45;58.93;101774.44;5020487;28;45370;-53
2022/01/31 09:11:14;;;;;;;;;2.75;1.25;;;;;9.51;58.79;101763.59;5020273;28;45388;-54
2022/01/31 09:13:40;;;;;;;;;1.50;1.00;;;;;9.53;58.05;101755.53;5020013;28;46201;-56
2022/01/31 09:16:07;;;;;;;;;2.00;1.00;;;;;9.56;57.87;101758.13;5020149;28;45343;-53
2022/01/31 09:18:32;;;;;;;;;5.00;2.00;;;;;9.57;57.87;101747.38;5020373;28;45418;-51
2022/01/31 09:20:59;;;;;;;;;5.00;2.00;;;;;9.59;57.83;101748.22;5020033;28;45345;-52
2022/01/31 09:23:25;;;;;;;;;4.00;1.00;;;;;9.53;57.23;101745.69;5020095;28;45410;-55
2022/01/31 09:25:51;;;;;;;;;7.75;1.00;;;;;9.47;56.99;101757.44;5019966;28;45475;-52
2022/01/31 09:28:16;;;;;;;;;4.25;0.00;;;;;9.45;57.32;101764.63;5002111;28;45387;-54
2022/01/31 09:30:43;;;;;;;;;1.00;1.00;;;;;9.49;57.08;101765.44;5019959;28;45429;-52
2022/01/31 09:33:10;;;;;;;;;1.50;0.00;;;;;9.50;56.83;101764.53;5020017;28;46176;-54
2022/01/31 09:35:36;;;;;;;;;1.00;1.00;;;;;9.53;57.15;101777.81;5019703;28;45326;-54
2022/01/31 09:38:03;;;;;;;;;4.00;1.00;;;;;9.48;56.54;101766.34;5019970;28;45276;-52
2022/01/31 09:40:28;;;;;;;;;2.00;0.00;;;;;9.54;56.32;101757.28;5019817;28;47149;-55
2022/01/31 09:48:32;;;;;;;;;3.75;1.00;;;;;9.68;55.19;101765.84;5019738;28;45307;-52
2022/01/31 09:51:15;;;;;;;;;0.00;0.00;;;;;9.71;55.52;101777.34;5019793;28;45558;-51
2022/01/31 09:53:59;;;;;;;;;0.00;0.00;;;;;9.78;55.25;101759.34;5007929;28;45423;-55
2022/01/31 09:56:32;;;;;;;;;2.75;1.00;;;;;9.80;54.93;101771.75;5019228;28;45431;-52
2022/01/31 09:58:58;;;;;;;;;0.25;0.25;;;;;9.79;55.37;101775.34;5019786;28;45432;-53
2022/01/31 10:01:28;;;;;;;;;4.25;1.00;;;;;9.82;54.73;101779.75;5019415;28;45381;-50
2022/01/31 10:04:17;;;;;;;;;3.75;2.00;;;;;9.80;54.82;101779.78;5019575;28;45300;-51
2022/01/31 10:06:45;;;;;;;;;5.50;1.75;;;;;9.81;54.78;101789.59;5019747;28;45723;-53
2022/01/31 10:09:18;;;;;;;;;3.25;1.00;;;;;9.81;54.17;101797.63;5019452;28;45421;-62
2022/01/31 10:11:50;;;;;;;;;1.75;1.00;;;;;9.84;54.25;101802.03;5019545;28;45530;-52
2022/01/31 10:17:31;;;;;;;;;2.50;1.00;;;;;9.79;53.24;101807.47;5019255;28;46027;-52
2022/01/31 10:20:00;;;;;;;;;3.00;0.50;;;;;9.82;53.64;101798.50;5019568;28;45364;-50
2022/01/31 10:22:30;;;;;;;;;1.25;1.00;;;;;9.78;52.52;101797.69;5019260;28;45505;-51
2022/01/31 10:25:02;;;;;;;;;3.00;2.00;;;;;9.82;52.83;101807.41;5019493;28;45313;-48
2022/01/31 10:27:32;;;;;;;;;4.00;0.50;;;;;9.88;52.34;101795.66;5018960;28;45446;-49
2022/01/31 10:30:09;;;;;;;;;0.25;0.25;;;;;9.98;51.64;101786.47;5019183;28;45322;-52
2022/01/31 10:32:37;;;;;;;;;3.25;0.00;;;;;10.04;52.57;101813.06;5018846;28;45330;-51
2022/01/31 10:35:07;;;;;;;;;0.00;0.00;;;;;10.06;52.61;101802.31;5018862;28;46039;-53
2022/01/31 10:37:35;;;;;;;;;2.25;1.00;;;;;10.07;54.24;101804.97;5019156;28;45484;-52
2022/01/31 10:54:35;;;;;;;;;2.00;1.50;;;;;10.12;53.59;101827.16;5008804;28;45452;-51
2022/01/31 10:56:56;;;;;;;;;1.00;0.00;;;;;10.13;52.87;101828.91;5005985;28;45912;-51
2022/01/31 10:59:34;;;;;;;;;2.00;1.00;;;;;10.16;52.54;101826.16;5017965;28;45433;-51
2022/01/31 11:02:01;;;;;;;;;2.75;1.00;;;;;10.23;52.92;101816.19;5018866;28;45372;-50
2022/01/31 11:04:32;;;;;;;;;3.50;0.25;;;;;10.32;52.13;101817.72;5018366;28;45279;-50
2022/01/31 11:07:00;;;;;;;;;1.00;1.00;;;;;10.40;52.35;101827.31;5018650;28;46131;-52
2022/01/31 11:09:25;;;;;;;;;0.50;0.00;;;;;10.44;51.40;101828.13;5018277;28;45386;-52
2022/01/31 11:11:51;;;;;;;;;1.25;0.50;;;;;10.46;50.60;101831.66;5018158;28;45341;-51
2022/01/31 11:14:20;;;;;;;;;2.50;1.00;;;;;10.48;51.10;101837.81;5018337;28;45329;-50
2022/01/31 11:16:47;;;;;;;;;3.00;1.00;;;;;10.49;51.51;101819.00;5018485;28;46916;-52
2022/01/31 11:19:16;;;;;;;;;1.00;0.00;;;;;10.49;51.20;101820.81;5018324;28;46326;-51
2022/01/31 11:21:45;;;;;;;;;3.00;0.25;;;;;10.56;50.39;101806.31;5018246;28;45381;-52
2022/01/31 11:24:20;;;;;;;;;2.50;0.00;;;;;10.94;48.75;101818.59;5018194;28;45448;-51
2022/01/31 11:26:50;;;;;;;;;2.50;1.00;;;;;11.25;48.85;101823.88;5020398;28;46199;-51
2022/01/31 11:29:17;;;;;;;;;2.00;1.00;;;;;11.36;47.78;101835.19;5025026;28;45571;-52
2022/01/31 11:31:43;;;;;;;;;0.00;0.00;;;;;11.30;48.76;101851.50;5024487;28;45550;-51
2022/01/31 11:34:08;;;;;;;;;0.75;0.00;;;;;11.14;49.01;101843.03;5025001;28;45466;-54
2022/01/31 11:36:37;;;;;;;;;0.50;0.00;;;;;10.99;49.55;101843.47;5024482;28;45282;-51
2022/01/31 11:39:07;;;;;;;;;2.00;1.00;;;;;10.80;50.01;101810.09;5024875;28;45385;-50
2022/01/31 11:41:35;;;;;;;;;1.00;0.00;;;;;10.81;50.47;101823.44;5024307;28;45348;-51
2022/01/31 11:44:29;;;;;;;;;2.25;0.50;;;;;11.53;49.48;101834.63;5024749;28;46065;-52
2022/01/31 11:46:57;;;;;;;;;1.00;1.00;;;;;12.12;47.81;101814.72;5016174;28;46265;-53
2022/01/31 11:49:22;;;;;;;;;0.50;0.50;;;;;12.30;47.13;101823.94;5024495;28;45472;-51
2022/01/31 11:52:00;;;;;;;;;0.25;0.00;;;;;12.28;48.17;101825.81;5024292;28;45441;-50
2022/01/31 11:54:25;;;;;;;;;0.75;0.75;;;;;12.17;46.76;101829.78;5024254;28;45444;-52
2022/01/31 11:56:52;;;;;;;;;0.00;0.00;;;;;11.99;48.08;101911.97;5024090;28;46193;-49
2022/01/31 11:59:21;;;;;;;;;1.00;0.00;;;;;11.57;50.34;101920.41;5024399;28;45343;-50
2022/01/31 12:01:50;;;;;;;;;1.00;1.00;;;;;11.04;52.00;101873.75;5024360;28;45330;-52
2022/01/31 12:04:16;;;;;;;;;0.75;0.50;;;;;10.81;52.41;101887.81;5024484;28;45354;-50
2022/01/31 12:06:41;;;;;;;;;0.00;0.00;;;;;10.79;54.02;101888.81;5023996;28;46349;-52
2022/01/31 12:09:13;;;;;;;;;0.50;0.00;;;;;11.02;54.09;101888.13;5024443;28;45335;-50
2022/01/31 12:12:02;;;;;;;;;0.50;0.50;;;;;11.41;53.93;101886.91;5024351;28;45477;-50
2022/01/31 12:14:49;;;;;;;;;3.75;1.25;;;;;11.89;53.35;101871.06;5024287;28;46175;-49
2022/01/31 12:18:03;;;;;;;;;3.25;1.00;;;;;12.98;51.89;101876.16;5024440;28;46093;-52
2022/01/31 12:23:50;;;;;;;;;2.00;1.00;;;;;14.76;45.94;101864.22;4928731;28;45436;-52
2022/01/31 12:26:30;;;;;;;;;2.50;1.00;;;;;14.60;46.32;101861.34;5008631;28;45370;-54
2022/01/31 12:28:58;;;;;;;;;2.00;0.00;;;;;14.19;44.98;101855.06;5024056;28;45187;-56
2022/01/31 12:31:29;;;;;;;;;0.00;0.00;;;;;13.79;44.59;101855.84;5023792;28;45519;-56
2022/01/31 12:33:55;;;;;;;;;2.00;0.00;;;;;13.41;44.54;101851.16;5024132;28;45373;-60
2022/01/31 12:36:36;;;;;;;;;2.00;0.00;;;;;12.96;44.04;101843.91;5024154;28;45359;-59
2022/01/31 12:39:41;;;;;;;;;0.50;0.00;;;;;12.47;44.62;101855.59;5021192;28;46460;-60
2022/01/31 12:45:23;;;;;;;;;1.00;1.00;;;;;11.67;46.18;101859.22;5020814;28;45361;-60
2022/01/31 12:48:21;;;;;;;;;0.00;0.00;;;;;11.49;46.97;101883.97;5020708;28;45350;-60
2022/01/31 12:50:58;;;;;;;;;0.00;0.00;;;;;11.31;46.22;101877.41;5020271;28;46951;-60
2022/01/31 12:53:24;;;;;;;;;0.00;0.00;;;;;11.18;45.70;101866.16;5020435;28;45356;-60
2022/01/31 12:56:07;;;;;;;;;1.25;1.00;;;;;11.14;46.19;101871.69;5020690;28;45820;-60
2022/01/31 12:58:34;;;;;;;;;1.00;1.00;;;;;11.12;46.00;101881.56;5007168;28;45504;-62
2022/01/31 13:01:11;;;;;;;;;1.00;0.00;;;;;11.06;46.18;101877.25;5020455;28;45350;-61
2022/01/31 13:03:38;;;;;;;;;0.50;0.00;;;;;10.98;44.87;101881.97;5020566;28;45274;-60
2022/01/31 13:06:22;;;;;;;;;0.00;0.00;;;;;10.93;44.82;101890.16;5020346;28;45399;-61
2022/01/31 13:08:47;;;;;;;;;0.00;0.00;;;;;10.76;42.95;101892.44;5020179;28;45271;-59
2022/01/31 13:11:14;;;;;;;;;3.00;0.00;;;;;10.66;42.54;101911.50;5019868;28;46199;-60
2022/01/31 13:13:39;;;;;;;;;0.00;0.00;;;;;10.56;42.70;101895.69;5020208;28;45437;-60
2022/01/31 13:16:06;;;;;;;;;1.00;0.00;;;;;10.51;42.45;101902.97;5020212;28;45152;-60
2022/01/31 13:18:33;;;;;;;;;0.00;0.00;;;;;10.50;43.00;101905.69;5020306;28;45638;-61
2022/01/31 13:21:02;;;;;;;;;0.25;0.00;;;;;10.46;42.99;101912.94;5019564;28;46864;-60
2022/01/31 13:23:28;;;;;;;;;5.00;0.75;;;;;10.51;42.70;101911.03;5019912;28;45222;-60
2022/01/31 13:26:05;;;;;;;;;1.75;0.00;;;;;10.58;42.55;101909.03;5020100;28;45203;-60
2022/01/31 13:28:31;;;;;;;;;1.50;0.00;;;;;10.60;42.09;101910.78;5019745;28;45359;-60
2022/01/31 13:31:08;;;;;;;;;0.00;0.00;;;;;10.69;41.46;101917.69;5018878;28;45515;-60
2022/01/31 13:33:51;;;;;;;;;0.50;0.00;;;;;10.71;41.41;101912.28;5019628;28;45570;-60
2022/01/31 13:36:16;;;;;;;;;0.50;0.50;;;;;10.80;41.27;101907.50;5019950;28;45456;-60
2022/01/31 13:38:43;;;;;;;;;1.00;0.00;;;;;10.90;41.33;101900.97;5019954;28;45274;-60
2022/01/31 13:41:10;;;;;;;;;0.50;0.50;;;;;10.96;41.04;101895.44;5019774;28;45409;-61
2022/01/31 13:43:39;;;;;;;;;0.00;0.00;;;;;11.03;41.46;101914.94;5019752;28;45411;-60
2022/01/31 13:48:47;;;;;;;;;2.00;0.00;;;;;11.14;39.67;101914.63;5019288;28;45802;-60
2022/01/31 13:51:28;;;;;;;;;1.50;0.00;;;;;11.08;40.47;101907.59;5001841;28;46057;-61
2022/01/31 13:53:54;;;;;;;;;1.00;0.50;;;;;11.02;40.20;101920.34;5019945;28;45411;-60
2022/01/31 13:56:20;;;;;;;;;0.50;0.50;;;;;10.92;39.41;101887.50;5019138;28;45408;-60
2022/01/31 13:58:57;;;;;;;;;0.50;0.00;;;;;10.77;39.84;101891.53;5019452;28;45357;-60
2022/01/31 14:01:23;;;;;;;;;0.00;0.00;;;;;10.72;40.61;101897.97;5019499;28;46185;-60
2022/01/31 14:03:50;;;;;;;;;5.00;0.00;;;;;10.65;40.17;101891.84;5019884;28;45374;-58
2022/01/31 14:06:16;;;;;;;;;2.00;1.00;;;;;10.59;39.47;101898.28;5019406;28;45322;-60
2022/01/31 14:08:59;;;;;;;;;0.00;0.00;;;;;10.53;39.53;101902.94;5019397;28;45976;-60
2022/01/31 14:11:27;;;;;;;;;1.00;0.50;;;;;10.57;39.29;101904.59;5018981;28;47507;-60
2022/01/31 14:13:57;;;;;;;;;0.75;0.00;;;;;10.59;38.94;101917.06;5019868;28;45401;-60
2022/01/31 14:16:25;;;;;;;;;2.00;0.25;;;;;10.55;39.45;101906.44;5020213;28;45321;-59
2022/01/31 14:18:53;;;;;;;;;0.50;0.50;;;;;10.59;39.33;101908.13;5019137;28;45294;-61
2022/01/31 14:21:21;;;;;;;;;0.25;0.25;;;;;10.58;39.49;101896.53;5018874;28;46268;-61
2022/01/31 14:23:49;;;;;;;;;0.25;0.00;;;;;10.71;39.64;101901.56;5019327;28;45524;-60
2022/01/31 14:26:17;;;;;;;;;0.00;0.00;;;;;11.26;39.05;101895.44;5019226;28;45270;-60
2022/01/31 14:28:53;;;;;;;;;1.00;0.00;;;;;12.02;37.19;101895.72;5019147;28;45492;-60
2022/01/31 14:31:33;;;;;;;;;0.00;0.00;;;;;12.94;36.22;101890.63;5018088;28;46389;-61
2022/01/31 14:34:04;;;;;;;;;4.50;1.00;;;;;13.43;34.73;101882.50;5018830;28;45435;-61
2022/01/31 14:36:35;;;;;;;;;1.00;0.25;;;;;13.42;34.90;101894.19;5018874;28;45286;-60
2022/01/31 14:39:14;;;;;;;;;0.25;0.25;;;;;13.25;34.64;101899.38;5018993;28;45410;-60
2022/01/31 14:47:42;;;;;;;;;0.25;0.25;;;;;13.23;33.97;101909.31;5019056;28;45433;-59
2022/01/31 14:50:10;;;;;;;;;0.75;0.75;;;;;13.16;34.76;101911.38;5018622;28;46166;-60
2022/01/31 14:52:37;;;;;;;;;1.00;0.00;;;;;12.93;34.81;101905.06;5018764;28;48666;-59
2022/01/31 14:55:18;;;;;;;;;0.00;0.00;;;;;12.69;34.81;101928.34;5018836;28;45323;-60
2022/01/31 14:57:45;;;;;;;;;3.50;0.50;;;;;12.47;35.37;101928.22;4982184;28;45462;-60
2022/01/31 15:00:16;;;;;;;;;0.00;0.00;;;;;12.28;35.09;101925.28;5018834;28;45542;-60
2022/01/31 15:02:42;;;;;;;;;0.00;0.00;;;;;12.07;35.09;101934.09;5018193;28;46449;-60
2022/01/31 15:05:14;;;;;;;;;2.50;1.00;;;;;11.86;35.44;101938.34;5018615;28;45378;-60
2022/01/31 15:07:41;;;;;;;;;3.00;1.00;;;;;11.69;36.11;101946.91;5018731;28;45351;-60
2022/01/31 15:10:09;;;;;;;;;0.50;0.00;;;;;11.49;36.48;101937.69;5018630;28;45489;-59
2022/01/31 15:12:35;;;;;;;;;1.75;0.00;;;;;11.39;36.96;101953.22;5018375;28;45365;-59
2022/01/31 15:15:00;;;;;;;;;3.75;0.00;;;;;11.24;36.68;101945.59;5001029;28;45286;-60
2022/01/31 15:17:26;;;;;;;;;1.00;1.00;;;;;11.16;37.29;101958.38;5018455;28;46114;-60
2022/01/31 15:19:52;;;;;;;;;0.00;0.00;;;;;11.13;37.10;101951.31;5018027;28;46192;-61
2022/01/31 15:22:18;;;;;;;;;3.75;1.00;;;;;11.20;37.57;101954.69;5018148;28;45962;-60
2022/01/31 15:24:43;;;;;;;;;1.00;0.00;;;;;11.25;37.78;101959.00;5018482;28;45385;-59
2022/01/31 15:27:10;;;;;;;;;0.75;0.75;;;;;11.31;38.21;101979.44;5018196;28;45278;-59
2022/01/31 15:29:35;;;;;;;;;2.25;1.00;;;;;11.31;38.62;101976.75;5018242;28;46342;-60
2022/01/31 15:32:01;;;;;;;;;1.00;0.00;;;;;11.26;38.51;101984.91;5018123;28;46273;-60
2022/01/31 15:34:27;;;;;;;;;2.25;1.00;;;;;11.27;39.28;101997.41;5017838;28;45254;-60
2022/01/31 15:36:53;;;;;;;;;0.00;0.00;;;;;11.21;38.83;101996.72;5018112;28;45206;-64
2022/01/31 15:39:18;;;;;;;;;3.50;1.00;;;;;11.13;38.77;102005.00;5018197;28;45492;-59
2022/01/31 15:41:46;;;;;;;;;0.00;0.00;;;;;11.06;38.40;102000.69;5017856;28;45381;-59
2022/01/31 15:44:24;;;;;;;;;2.00;0.00;;;;;10.99;38.64;101989.25;5017965;28;45480;-59
2022/01/31 15:46:49;;;;;;;;;3.25;0.00;;;;;10.94;38.16;102011.78;5018059;28;45377;-59
2022/01/31 15:49:15;;;;;;;;;0.00;0.00;;;;;10.87;38.55;102000.34;5018149;28;46107;-60
2022/01/31 15:51:40;;;;;;;;;0.75;0.25;;;;;10.79;38.19;102005.03;5017840;28;46401;-59
2022/01/31 15:54:05;;;;;;;;;2.75;0.00;;;;;10.76;38.11;101997.06;5018336;28;45575;-59
2022/01/31 15:56:31;;;;;;;;;0.00;0.00;;;;;10.69;38.26;101999.94;5017954;28;45499;-59
2022/01/31 15:58:56;;;;;;;;;0.50;0.00;;;;;10.68;38.30;102004.44;5018095;28;45330;-60
2022/01/31 16:01:21;;;;;;;;;0.50;0.50;;;;;10.63;39.12;102012.56;5017889;28;45287;-59
2022/01/31 16:03:49;;;;;;;;;3.50;0.75;;;;;10.68;39.02;102035.72;5018156;28;45390;-60
2022/01/31 16:06:14;;;;;;;;;2.00;0.00;;;;;10.66;38.72;102019.66;5018170;28;45360;-60
2022/01/31 16:08:40;;;;;;;;;0.25;0.00;;;;;10.58;39.06;102044.00;5018097;28;45501;-60
2022/01/31 16:11:05;;;;;;;;;1.25;0.00;;;;;10.53;39.38;102048.63;5017439;28;47082;-50
2022/01/31 16:13:31;;;;;;;;;1.75;1.00;;;;;10.51;38.63;102055.81;5018686;28;45497;-49
2022/01/31 16:15:57;;;;;;;;;0.75;0.00;;;;;10.43;39.66;102040.84;5021705;28;45302;-50
2022/01/31 16:18:23;;;;;;;;;0.00;0.00;;;;;10.40;39.59;102035.53;5021416;28;45416;-49
2022/01/31 16:20:49;;;;;;;;;3.00;0.00;;;;;10.06;39.29;101996.13;5020968;28;45396;-50
2022/01/31 16:23:15;;;;;;;;;2.00;0.00;;;;;10.33;40.26;102058.06;5020891;28;45361;-52
2022/01/31 16:25:43;;;;;;;;;0.00;0.00;;;;;10.32;40.51;102049.13;5021043;28;45419;-49
2022/01/31 16:28:15;;;;;;;;;1.00;0.25;;;;;10.27;40.67;102052.84;5020804;28;45457;-52
2022/01/31 16:30:40;;;;;;;;;0.00;0.00;;;;;10.33;40.75;102074.13;5020948;28;45929;-50
2022/01/31 16:33:06;;;;;;;;;1.50;0.25;;;;;10.30;40.79;102064.34;5021074;28;45397;-50
2022/01/31 16:35:31;;;;;;;;;0.00;0.00;;;;;10.28;40.19;102070.69;5020738;28;45592;-50
2022/01/31 16:37:57;;;;;;;;;3.75;1.50;;;;;10.24;40.90;102088.63;5021085;28;45378;-48
2022/01/31 16:40:23;;;;;;;;;1.00;1.00;;;;;10.20;41.12;102081.59;5020658;28;45944;-52
2022/01/31 16:42:48;;;;;;;;;0.00;0.00;;;;;9.86;41.97;102038.56;5020903;28;45352;-51
2022/01/31 16:45:15;;;;;;;;;1.75;0.50;;;;;10.14;41.33;102085.25;5020876;28;45368;-49
2022/01/31 16:47:46;;;;;;;;;1.00;1.00;;;;;10.11;41.71;102082.66;5020909;28;45476;-52
2022/01/31 16:50:14;;;;;;;;;3.50;0.50;;;;;10.05;41.98;102097.97;5020642;28;46102;-51
2022/01/31 16:52:40;;;;;;;;;1.00;1.00;;;;;10.05;41.73;102098.84;5020804;28;45520;-52
2022/01/31 16:55:09;;;;;;;;;2.75;0.25;;;;;10.02;41.51;102111.44;5021087;28;45489;-47
2022/01/31 16:57:34;;;;;;;;;2.25;0.75;;;;;9.99;42.13;102111.50;5020412;28;45358;-50
2022/01/31 17:00:00;;;;;;;;;1.75;1.00;;;;;9.94;42.25;102114.28;5020727;28;46139;-53
2022/01/31 17:02:25;;;;;;;;;1.00;1.00;;;;;9.97;41.97;102111.53;5021150;28;45381;-52
2022/01/31 17:04:51;;;;;;;;;1.50;1.00;;;;;9.96;41.98;102106.19;5020634;28;45528;-50
2022/01/31 17:07:16;;;;;;;;;4.00;1.00;;;;;9.93;42.13;102117.88;5002894;28;46089;-50
2022/01/31 17:09:41;;;;;;;;;2.00;1.00;;;;;9.91;41.81;102113.47;5020172;28;45358;-48
2022/01/31 17:12:07;;;;;;;;;2.50;1.00;;;;;9.88;41.66;102131.34;5020608;28;45270;-48
2022/01/31 17:14:33;;;;;;;;;1.00;1.00;;;;;9.83;41.82;102127.00;5020863;28;45448;-51
2022/01/31 17:16:58;;;;;;;;;1.25;0.75;;;;;9.79;41.83;102130.66;5020678;28;45581;-50
2022/01/31 17:19:26;;;;;;;;;3.00;0.75;;;;;9.73;41.31;102129.00;5020108;28;46159;-50
2022/01/31 17:21:52;;;;;;;;;1.25;1.00;;;;;9.58;41.69;102123.97;5020438;28;45250;-52
2022/01/31 17:24:17;;;;;;;;;1.25;1.25;;;;;9.69;41.75;102163.91;5020143;28;45314;-49
2022/01/31 17:26:43;;;;;;;;;1.50;0.75;;;;;9.68;41.54;102159.47;5020201;28;45336;-50
2022/01/31 17:29:11;;;;;;;;;3.00;1.25;;;;;9.66;41.90;102159.50;5020098;28;46141;-48
2022/01/31 17:31:40;;;;;;;;;1.50;1.00;;;;;9.65;42.02;102162.19;5017739;28;45441;-51
2022/01/31 17:34:06;;;;;;;;;3.25;1.50;;;;;9.63;41.77;102159.53;5018693;28;45412;-52
2022/01/31 17:36:31;;;;;;;;;2.00;0.50;;;;;9.59;42.12;102160.53;5026542;28;45405;-54
2022/01/31 17:38:57;;;;;;;;;1.00;1.00;;;;;9.55;41.29;102157.94;5020036;28;46175;-52
2022/01/31 17:41:23;;;;;;;;;1.00;1.00;;;;;9.51;42.06;102175.88;5020252;28;45408;-51
2022/01/31 17:43:51;;;;;;;;;1.00;0.00;;;;;9.51;42.45;102185.69;5020334;28;45606;-52
2022/01/31 17:46:17;;;;;;;;;1.25;1.00;;;;;9.48;42.27;102181.25;5020381;28;45920;-51
2022/01/31 17:48:44;;;;;;;;;2.00;2.00;;;;;9.47;42.15;102180.38;5020121;28;45403;-55